Time;durP1;ratioP1;P1;durP2;ratioP2;P2;SDS_P1;SDS_P2;PMS_P1;PMS_P2;Temp;Humidity;BMP_temperature;BMP_pressure;BME280_temperature;BME280_humidity;BME280_pressure;Samples;Min_cycle;Max_cycle;Signal;HPM_P1;HPM_P2
2022/11/03 00:01:46;;;;;;;4.83;1.25;;;;;;;8.56;97.81;99888.64;1699875;81;21544;-65
2022/11/03 00:04:15;;;;;;;5.45;1.07;;;;;;;8.54;97.79;99883.09;1736668;81;20829;-65
2022/11/03 00:06:44;;;;;;;4.45;1.07;;;;;;;8.52;97.87;99887.06;1710760;83;20890;-65
2022/11/03 00:09:13;;;;;;;3.25;1.30;;;;;;;8.48;97.71;99885.45;1722015;82;20989;-65
2022/11/03 00:11:42;;;;;;;3.67;0.90;;;;;;;8.44;97.81;99882.59;1728396;82;21298;-65
2022/11/03 00:14:10;;;;;;;9.40;1.32;;;;;;;8.41;97.93;99894.41;1731621;82;21879;-65
2022/11/03 00:16:37;;;;;;;;;;;;;;;8.41;98.04;99895.71;1730134;82;20949;-65
2022/11/03 00:19:05;;;;;;;2.75;1.05;;;;;;;8.41;98.24;99894.41;1729483;81;20112;-65
2022/11/03 00:21:32;;;;;;;9.55;1.40;;;;;;;8.40;98.23;99897.47;1711118;82;20921;-65
2022/11/03 00:24:05;;;;;;;6.65;1.40;;;;;;;8.41;98.28;99910.02;1733129;81;20947;-65
2022/11/03 00:26:31;;;;;;;6.45;1.47;;;;;;;8.41;98.40;99908.72;1726089;82;21056;-65
2022/11/03 00:29:00;;;;;;;5.12;1.37;;;;;;;8.42;98.45;99906.50;1716115;82;21431;-65
2022/11/03 00:31:30;;;;;;;4.30;1.10;;;;;;;8.44;98.48;99910.75;1712663;82;20906;-65
2022/11/03 00:33:58;;;;;;;4.92;1.00;;;;;;;8.47;98.56;99909.80;1734603;82;20945;-65
2022/11/03 00:36:28;;;;;;;5.67;1.40;;;;;;;8.50;98.56;99910.98;1727176;82;21947;-65
2022/11/03 00:38:56;;;;;;;6.62;1.90;;;;;;;8.51;98.42;99912.67;1712061;82;21036;-65
2022/11/03 00:41:23;;;;;;;5.22;1.10;;;;;;;8.47;98.27;99909.80;1725430;81;20923;-65
2022/11/03 00:43:50;;;;;;;8.53;1.30;;;;;;;8.44;98.26;99909.91;1728222;81;21449;-65
2022/11/03 00:46:19;;;;;;;5.12;1.05;;;;;;;8.41;98.47;99911.32;1725912;81;21016;-65
2022/11/03 00:48:46;;;;;;;5.37;1.67;;;;;;;8.44;98.69;99915.11;1734318;81;21071;-65
2022/11/03 00:51:20;;;;;;;7.73;1.33;;;;;;;8.46;98.82;99918.52;1731068;81;21850;-65
2022/11/03 00:53:57;;;;;;;7.50;1.65;;;;;;;8.47;98.82;99918.45;1732517;82;20909;-65
2022/11/03 00:56:27;;;;;;;2.60;1.15;;;;;;;8.49;98.78;99918.41;1710546;82;20984;-65
2022/11/03 00:58:55;;;;;;;6.00;1.40;;;;;;;8.47;98.57;99916.30;1706221;82;21517;-65
2022/11/03 01:01:34;;;;;;;7.17;1.15;;;;;;;8.44;98.49;99913.81;1699393;83;20933;-65
2022/11/03 01:06:49;;;;;;;7.40;1.87;;;;;;;8.38;98.57;99927.02;1695497;84;20962;-65
2022/11/03 01:09:29;;;;;;;4.97;1.45;;;;;;;8.33;98.48;99922.41;1693381;83;20950;-65
2022/11/03 01:12:11;;;;;;;7.30;1.30;;;;;;;8.27;98.45;99924.32;1720119;81;20962;-65
2022/11/03 01:14:45;;;;;;;9.33;1.57;;;;;;;8.19;98.46;99923.73;1717808;83;20938;-65
2022/11/03 01:17:18;;;;;;;5.50;1.52;;;;;;;8.13;98.47;99927.84;1716990;81;21090;-65
2022/11/03 01:19:44;;;;;;;4.95;1.52;;;;;;;8.05;98.54;99919.00;1714916;81;21023;-64
2022/11/03 01:22:12;;;;;;;6.13;1.37;;;;;;;8.00;98.49;99925.25;1716933;81;20926;-65
2022/11/03 01:24:40;;;;;;;9.55;2.12;;;;;;;7.96;98.61;99926.27;1717484;83;21403;-65
2022/11/03 01:27:15;;;;;;;4.78;1.30;;;;;;;7.94;98.46;99930.66;1716420;81;20899;-65
2022/11/03 01:29:42;;;;;;;4.42;1.47;;;;;;;7.90;98.37;99923.84;1695164;83;21910;-65
2022/11/03 01:32:09;;;;;;;8.00;1.75;;;;;;;7.85;98.43;99926.16;1705527;82;20919;-65
2022/11/03 01:34:36;;;;;;;7.50;1.87;;;;;;;7.79;98.51;99933.33;1695851;83;21465;-65
2022/11/03 01:37:03;;;;;;;6.22;1.65;;;;;;;7.75;98.63;99932.55;1720718;82;20921;-65
2022/11/03 01:39:30;;;;;;;5.85;1.90;;;;;;;7.71;98.63;99929.66;1694422;83;21489;-65
2022/11/03 01:41:57;;;;;;;7.70;1.70;;;;;;;7.67;98.54;99941.49;1696858;82;21000;-65
2022/11/03 01:44:42;;;;;;;6.12;1.70;;;;;;;7.63;98.64;99938.16;1660868;84;20963;-65
2022/11/03 01:47:31;;;;;;;9.00;2.20;;;;;;;7.59;98.66;99940.46;1693999;83;20926;-65
2022/11/03 01:50:05;;;;;;;6.85;1.80;;;;;;;7.56;98.69;99940.53;1718950;81;20908;-65
2022/11/03 01:52:54;;;;;;;11.20;2.08;;;;;;;7.56;98.90;99941.83;1694995;83;20900;-66
2022/11/03 01:55:31;;;;;;;8.30;1.75;;;;;;;7.60;98.81;99942.15;1691594;83;21060;-65
2022/11/03 01:58:15;;;;;;;7.97;1.75;;;;;;;7.59;98.87;99943.06;1707463;82;20963;-65
2022/11/03 02:00:45;;;;;;;10.55;1.90;;;;;;;7.59;98.87;99940.46;1702178;82;20923;-65
2022/11/03 02:03:13;;;;;;;11.97;2.20;;;;;;;7.56;98.98;99941.83;1694868;82;20962;-65
2022/11/03 02:05:41;;;;;;;8.88;2.37;;;;;;;7.62;99.06;99942.96;1695508;81;20932;-65
2022/11/03 02:08:12;;;;;;;10.78;2.45;;;;;;;7.65;99.15;99950.66;1721707;83;21085;-64
2022/11/03 02:10:40;;;;;;;10.10;2.25;;;;;;;7.67;99.29;99946.23;1690284;83;20983;-65
2022/11/03 02:13:23;;;;;;;9.93;2.05;;;;;;;7.73;99.36;99953.87;1718370;82;20926;-65
2022/11/03 02:15:53;;;;;;;9.10;1.82;;;;;;;7.77;99.37;99955.45;1702630;82;21428;-65
2022/11/03 02:18:27;;;;;;;7.28;2.10;;;;;;;7.80;99.42;99951.45;1696298;82;21642;-65
2022/11/03 02:21:05;;;;;;;11.63;2.30;;;;;;;7.84;99.48;99951.77;1695237;82;23330;-65
2022/11/03 02:24:07;;;;;;;7.80;1.50;;;;;;;7.89;99.54;99957.26;1700515;82;21580;-65
2022/11/03 02:26:34;;;;;;;9.15;2.52;;;;;;;7.96;99.69;99949.67;1694680;82;20887;-65
2022/11/03 02:29:01;;;;;;;7.97;1.45;;;;;;;8.03;99.78;99948.55;1713831;83;20888;-65
2022/11/03 02:31:44;;;;;;;12.80;3.30;;;;;;;8.09;99.71;99952.24;1695183;83;20924;-65
2022/11/03 02:34:28;;;;;;;12.47;2.58;;;;;;;8.10;99.94;99955.27;1697385;83;21032;-65
2022/11/03 02:37:01;;;;;;;6.85;2.00;;;;;;;8.12;100.00;99961.70;1693083;83;21388;-65
2022/11/03 02:39:39;;;;;;;8.10;2.12;;;;;;;8.12;99.93;99957.34;1695196;83;20919;-65
2022/11/03 02:42:09;;;;;;;6.50;1.75;;;;;;;8.12;99.94;99956.03;1720271;82;20952;-65
2022/11/03 02:44:38;;;;;;;8.90;2.27;;;;;;;8.16;99.53;99960.25;1695807;83;21528;-65
2022/11/03 02:47:09;;;;;;;9.18;1.77;;;;;;;8.07;99.95;99965.77;1677293;84;21136;-65
2022/11/03 02:49:52;;;;;;;7.65;2.27;;;;;;;8.08;100.00;99955.75;1707777;83;20990;-65
2022/11/03 02:52:41;;;;;;;6.00;1.62;;;;;;;8.11;100.00;99959.55;1694828;83;20901;-65
2022/11/03 02:55:42;;;;;;;8.15;2.10;;;;;;;8.14;100.00;99958.59;1693840;83;20911;-65
2022/11/03 02:58:41;;;;;;;13.03;2.47;;;;;;;8.14;100.00;99964.64;1724052;82;21520;-65
2022/11/03 03:01:45;;;;;;;8.58;2.33;;;;;;;8.15;100.00;99961.16;1692837;84;21136;-65
2022/11/03 03:04:07;;;;;;;4.78;1.82;;;;;;;8.12;100.00;99958.64;1718106;82;20938;-65
2022/11/03 03:06:41;;;;;;;5.85;1.98;;;;;;;8.13;100.00;99962.95;1707477;82;21031;-65
2022/11/03 03:09:13;;;;;;;7.95;2.67;;;;;;;8.14;100.00;99962.05;1724880;82;20977;-65
2022/11/03 03:11:42;;;;;;;7.67;2.00;;;;;;;8.17;100.00;99960.64;1708699;82;20947;-65
2022/11/03 03:14:29;;;;;;;9.28;2.40;;;;;;;8.21;100.00;99965.31;1718644;82;21045;-65
2022/11/03 03:17:15;;;;;;;10.90;1.65;;;;;;;8.26;100.00;99973.78;1703303;82;20891;-66
2022/11/03 03:19:59;;;;;;;7.78;2.60;;;;;;;8.31;100.00;99966.68;1693821;83;20927;-65
2022/11/03 03:22:40;;;;;;;7.90;2.55;;;;;;;8.33;100.00;99969.24;1703329;82;20975;-65
2022/11/03 03:25:29;;;;;;;9.43;2.12;;;;;;;8.36;100.00;99966.08;1613804;87;20989;-65
2022/11/03 03:28:04;;;;;;;7.90;2.50;;;;;;;8.39;100.00;99971.66;1604442;88;21076;-65
2022/11/03 03:30:33;;;;;;;10.90;2.17;;;;;;;8.40;100.00;99978.55;1598732;88;20987;-65
2022/11/03 03:33:03;;;;;;;7.37;1.80;;;;;;;8.42;100.00;99976.76;1602211;88;20995;-65
2022/11/03 03:35:32;;;;;;;6.05;1.80;;;;;;;8.42;100.00;99985.86;1608793;88;21542;-65
2022/11/03 03:38:03;;;;;;;6.55;1.65;;;;;;;8.41;100.00;99982.88;1607174;87;20945;-65
2022/11/03 03:40:34;;;;;;;8.50;2.02;;;;;;;8.41;100.00;99990.69;1615213;87;21008;-66
2022/11/03 03:43:05;;;;;;;6.53;2.08;;;;;;;8.39;100.00;99987.27;1598658;88;21175;-65
2022/11/03 03:45:33;;;;;;;6.08;1.70;;;;;;;8.35;100.00;99988.27;1582257;88;20973;-66
2022/11/03 03:48:00;;;;;;;9.38;1.87;;;;;;;8.30;100.00;99989.25;1602878;88;20973;-65
2022/11/03 03:50:31;;;;;;;7.22;1.60;;;;;;;8.27;100.00;99980.25;1606466;87;21002;-65
2022/11/03 03:53:01;;;;;;;5.72;1.85;;;;;;;8.21;100.00;99979.16;1604348;88;21048;-65
2022/11/03 03:55:40;;;;;;;5.83;1.80;;;;;;;8.17;99.94;99985.34;1609497;87;20986;-65
2022/11/03 03:58:10;;;;;;;5.58;1.70;;;;;;;8.13;99.91;99995.47;1608834;87;20969;-65
2022/11/03 04:00:38;;;;;;;11.03;2.22;;;;;;;8.11;99.88;100002.46;1588239;88;20959;-65
2022/11/03 04:03:06;;;;;;;12.73;2.90;;;;;;;8.06;99.98;99995.25;1655271;84;21016;-65
2022/11/03 04:05:33;;;;;;;8.78;1.98;;;;;;;8.04;99.85;99997.08;1659757;84;21981;-65
2022/11/03 04:07:59;;;;;;;7.40;1.92;;;;;;;7.99;99.84;99998.52;1685859;83;20981;-65
2022/11/03 04:10:26;;;;;;;7.65;1.60;;;;;;;7.95;99.84;99997.35;1679704;84;20977;-65
2022/11/03 04:23:56;;;;;;;9.50;2.00;;;;;;;7.59;99.54;99997.63;1683091;83;21489;-65
2022/11/03 04:26:23;;;;;;;5.37;1.40;;;;;;;7.29;99.57;99988.55;1685310;83;21005;-65
2022/11/03 04:28:52;;;;;;;7.30;2.30;;;;;;;7.29;99.57;99988.55;1683227;83;21781;-65
2022/11/03 04:31:20;;;;;;;9.65;2.15;;;;;;;7.32;99.52;100004.04;1683824;83;21111;-65
2022/11/03 04:33:46;;;;;;;;;;;;;;;7.23;99.53;99995.23;1690951;83;20994;-65
2022/11/03 04:36:23;;;;;;;8.10;2.12;;;;;;;7.15;99.48;99995.89;1686577;83;20106;-65
2022/11/03 04:38:50;;;;;;;8.45;1.82;;;;;;;7.07;99.43;99996.56;1680631;84;20911;-65
2022/11/03 04:41:24;;;;;;;8.13;2.10;;;;;;;7.00;99.43;100006.28;1681879;84;20953;-65
2022/11/03 04:43:54;;;;;;;9.27;2.27;;;;;;;6.94;99.36;100003.83;1686951;83;21017;-65
2022/11/03 04:46:29;;;;;;;7.45;2.02;;;;;;;6.85;99.24;100012.72;1686319;83;20938;-65
2022/11/03 04:48:58;;;;;;;5.97;1.50;;;;;;;6.77;99.26;100013.37;1679605;84;20969;-64
2022/11/03 04:51:30;;;;;;;5.35;1.80;;;;;;;6.73;99.44;100015.21;1659259;84;20985;-65
2022/11/03 04:54:07;;;;;;;9.00;2.30;;;;;;;6.65;99.18;100011.13;1681208;83;20925;-65
2022/11/03 04:56:34;;;;;;;9.35;1.90;;;;;;;6.54;99.08;100006.66;1678769;84;21112;-65
2022/11/03 04:59:01;;;;;;;8.63;2.13;;;;;;;6.44;99.03;99999.13;1689593;82;21005;-65
2022/11/03 05:01:29;;;;;;;4.55;1.70;;;;;;;6.35;98.95;99999.34;1675863;82;20898;-65
2022/11/03 05:03:55;;;;;;;6.58;2.50;;;;;;;6.24;99.00;100001.36;1690693;83;20885;-65
2022/11/03 05:06:27;;;;;;;10.20;2.13;;;;;;;6.14;99.32;100002.49;1695719;84;21572;-64
2022/11/03 05:09:14;;;;;;;8.78;2.35;;;;;;;6.05;99.39;100007.46;1689421;84;21471;-65
2022/11/03 05:11:46;;;;;;;6.65;1.85;;;;;;;5.98;99.41;100001.55;1694472;83;20915;-65
2022/11/03 05:14:25;;;;;;;11.28;1.92;;;;;;;5.92;99.40;100002.97;1692365;83;20934;-65
2022/11/03 05:16:53;;;;;;;7.37;1.75;;;;;;;5.86;99.36;100008.30;1692568;83;20993;-65
2022/11/03 05:19:24;;;;;;;10.72;2.02;;;;;;;5.78;99.28;99994.22;1696915;83;20888;-65
2022/11/03 05:21:52;;;;;;;3.85;1.80;;;;;;;5.75;99.09;100000.77;1704548;83;21097;-65
2022/11/03 05:24:24;;;;;;;6.17;1.85;;;;;;;5.70;99.01;99999.17;1725658;82;20971;-65
2022/11/03 05:26:49;;;;;;;7.75;2.20;;;;;;;5.63;98.94;100000.19;1723157;81;20912;-65
2022/11/03 05:29:20;;;;;;;9.15;2.30;;;;;;;5.55;98.87;100001.23;1718638;81;20916;-65
2022/11/03 05:31:48;;;;;;;10.58;2.30;;;;;;;5.50;98.99;99997.88;1700296;83;21000;-65
2022/11/03 05:34:37;;;;;;;7.67;2.62;;;;;;;5.41;98.96;100000.68;1714852;82;21412;-64
2022/11/03 05:37:21;;;;;;;7.25;2.30;;;;;;;5.37;98.92;99999.02;1695603;83;20888;-65
2022/11/03 05:39:50;;;;;;;10.55;2.52;;;;;;;5.27;98.78;99994.95;1717437;81;20938;-65
2022/11/03 05:42:39;;;;;;;9.83;2.17;;;;;;;5.18;98.70;99995.12;1688196;83;20932;-65
2022/11/03 05:45:22;;;;;;;7.03;1.92;;;;;;;5.11;98.77;99995.25;1694318;83;20980;-65
2022/11/03 05:47:54;;;;;;;8.68;2.40;;;;;;;5.02;98.86;100007.55;1686736;83;21044;-65
2022/11/03 05:50:25;;;;;;;8.25;2.42;;;;;;;4.95;99.07;99997.73;1690159;83;21495;-66
2022/11/03 05:52:56;;;;;;;6.67;2.72;;;;;;;4.91;99.19;100003.87;1692478;83;20969;-65
2022/11/03 05:55:30;;;;;;;7.33;2.20;;;;;;;4.85;99.10;100002.70;1714698;82;21089;-66
2022/11/03 05:58:00;;;;;;;12.30;2.62;;;;;;;4.86;99.05;99999.22;1717689;81;20963;-65
2022/11/03 06:00:37;;;;;;;7.08;3.00;;;;;;;4.86;99.02;100001.80;1698134;83;21035;-65
2022/11/03 06:03:05;;;;;;;8.75;3.02;;;;;;;4.84;98.96;100008.73;1683303;83;21460;-65
2022/11/03 06:05:33;;;;;;;10.15;2.75;;;;;;;4.79;98.95;100005.38;1720399;83;20960;-65
2022/11/03 06:08:05;;;;;;;9.08;2.75;;;;;;;4.80;99.11;100017.45;1710967;82;20973;-64
2022/11/03 06:10:35;;;;;;;10.82;2.62;;;;;;;4.83;99.21;100017.39;1701388;82;20930;-66
2022/11/03 06:13:16;;;;;;;11.33;2.55;;;;;;;4.88;99.13;100025.92;1702171;82;21957;-64
2022/11/03 06:15:47;;;;;;;6.87;2.40;;;;;;;4.96;99.15;100030.52;1638951;86;20973;-65
2022/11/03 06:18:23;;;;;;;9.35;2.83;;;;;;;5.08;99.34;100025.08;1632032;87;20995;-65
2022/11/03 06:20:54;;;;;;;12.82;3.10;;;;;;;5.23;99.43;100033.42;1654851;86;20999;-65
2022/11/03 06:23:22;;;;;;;8.80;3.27;;;;;;;5.42;99.14;100025.68;1631774;86;21011;-65
2022/11/03 06:25:52;;;;;;;11.83;3.05;;;;;;;5.57;98.90;100029.67;1642459;86;21562;-65
2022/11/03 06:28:23;;;;;;;4.75;2.33;;;;;;;5.75;98.80;100028.42;1653139;86;21536;-65
2022/11/03 06:30:50;;;;;;;5.08;2.70;;;;;;;5.85;98.26;100029.91;1665600;85;20938;-65
2022/11/03 06:33:29;;;;;;;9.50;2.12;;;;;;;5.95;97.92;100028.84;1643457;86;20926;-65
2022/11/03 06:36:15;;;;;;;7.92;2.80;;;;;;;6.08;97.80;100031.13;1649035;86;21015;-65
2022/11/03 06:38:47;;;;;;;10.08;2.52;;;;;;;6.21;97.72;100038.58;1646478;86;21070;-65
2022/11/03 06:41:30;;;;;;;8.13;2.55;;;;;;;6.25;97.58;100032.45;1649018;86;20957;-65
2022/11/03 06:44:00;;;;;;;5.22;2.45;;;;;;;6.29;97.92;100035.81;1649127;85;20990;-65
2022/11/03 06:46:28;;;;;;;6.40;2.60;;;;;;;6.39;97.90;100034.70;1651114;86;21519;-66
2022/11/03 06:49:00;;;;;;;7.10;2.83;;;;;;;6.43;98.11;100044.55;1633163;86;20962;-66
2022/11/03 06:51:28;;;;;;;6.72;2.60;;;;;;;6.48;98.31;100053.91;1668485;84;21214;-65
2022/11/03 06:54:00;;;;;;;7.50;2.30;;;;;;;6.52;98.37;100040.86;1695100;83;20922;-65
2022/11/03 06:56:34;;;;;;;4.92;2.27;;;;;;;6.55;98.52;100045.52;1686009;83;21464;-66
2022/11/03 06:59:04;;;;;;;5.90;2.58;;;;;;;6.58;98.65;100039.41;1690672;82;20898;-65
2022/11/03 07:01:32;;;;;;;6.60;2.50;;;;;;;6.61;98.70;100047.11;1709173;82;21550;-66
2022/11/03 07:04:03;;;;;;;5.20;2.25;;;;;;;6.63;98.71;100051.36;1704233;83;21925;-66
2022/11/03 07:06:35;;;;;;;8.28;2.27;;;;;;;6.66;98.75;100051.73;1663901;84;20982;-66
2022/11/03 07:09:08;;;;;;;7.17;2.47;;;;;;;6.70;98.91;100057.27;1677843;83;21021;-66
2022/11/03 07:11:45;;;;;;;8.90;3.17;;;;;;;6.80;99.31;100050.92;1707933;81;20938;-66
2022/11/03 07:14:26;;;;;;;7.78;2.30;;;;;;;6.89;99.25;100050.70;1713538;81;20930;-66
2022/11/03 07:16:56;;;;;;;6.55;3.05;;;;;;;6.98;99.28;100064.33;1724967;80;21172;-64
2022/11/03 07:19:33;;;;;;;8.15;2.12;;;;;;;7.04;99.11;100064.16;1720712;81;21462;-67
2022/11/03 07:22:05;;;;;;;6.00;2.40;;;;;;;7.13;99.53;100056.10;1682931;83;20991;-66
2022/11/03 07:24:38;;;;;;;6.70;2.90;;;;;;;7.25;99.44;100058.34;1687784;83;21026;-66
2022/11/03 07:27:37;;;;;;;7.45;2.42;;;;;;;7.31;99.49;100053.00;1707461;83;20962;-66
2022/11/03 07:30:27;;;;;;;10.13;3.22;;;;;;;7.43;99.47;100052.24;1697930;82;21068;-66
2022/11/03 07:32:58;;;;;;;6.35;3.00;;;;;;;7.54;99.42;100056.68;1711507;81;20994;-66
2022/11/03 07:35:36;;;;;;;5.45;2.87;;;;;;;7.63;99.45;100056.40;1694560;83;20918;-66
2022/11/03 07:38:14;;;;;;;16.32;2.95;;;;;;;7.74;99.49;100067.32;1707346;81;20908;-66
2022/11/03 07:40:41;;;;;;;4.62;1.87;;;;;;;7.84;99.58;100063.55;1711376;81;21516;-66
2022/11/03 07:43:30;;;;;;;7.00;2.67;;;;;;;7.92;99.35;100057.25;1711493;83;21154;-66
2022/11/03 07:46:00;;;;;;;7.10;2.45;;;;;;;7.95;99.36;100062.36;1716940;82;20912;-66
2022/11/03 07:48:37;;;;;;;4.95;2.12;;;;;;;8.09;99.79;100058.88;1710970;83;20887;-66
2022/11/03 07:51:21;;;;;;;4.42;1.72;;;;;;;8.15;99.42;100057.40;1696232;83;20993;-66
2022/11/03 07:53:51;;;;;;;5.00;1.65;;;;;;;8.20;99.42;100055.48;1709337;83;20935;-66
2022/11/03 07:56:25;;;;;;;6.35;2.75;;;;;;;8.21;99.17;100052.00;1713488;83;21108;-66
2022/11/03 07:59:00;;;;;;;3.52;1.62;;;;;;;8.24;99.32;100051.89;1718536;81;21473;-66
2022/11/03 08:01:33;;;;;;;9.45;2.77;;;;;;;8.35;99.60;100050.70;1699728;83;20896;-67
2022/11/03 08:04:04;;;;;;;3.30;1.65;;;;;;;8.40;99.50;100047.08;1668791;84;20982;-67
2022/11/03 08:06:32;;;;;;;7.37;2.10;;;;;;;8.50;99.63;100047.61;1676804;84;20970;-66
2022/11/03 08:08:59;;;;;;;4.72;1.80;;;;;;;8.54;99.40;100041.39;1694740;83;21080;-66
2022/11/03 08:11:25;;;;;;;6.40;1.80;;;;;;;8.67;99.39;100045.28;1707015;83;20944;-67
2022/11/03 08:13:52;;;;;;;7.90;2.27;;;;;;;8.67;99.40;100026.22;1688091;83;21321;-67
2022/11/03 08:16:19;;;;;;;6.55;2.00;;;;;;;8.85;99.44;100042.94;1702317;83;22083;-66
2022/11/03 08:18:46;;;;;;;6.40;2.43;;;;;;;8.96;99.62;100039.08;1693339;83;20988;-66
2022/11/03 08:21:13;;;;;;;8.35;2.12;;;;;;;9.04;99.43;100031.42;1696608;83;21622;-66
2022/11/03 08:23:40;;;;;;;5.12;2.12;;;;;;;9.12;99.35;100031.54;1697920;83;20959;-66
2022/11/03 08:26:06;;;;;;;8.38;3.00;;;;;;;9.16;98.96;100030.54;1687212;83;21412;-66
2022/11/03 08:28:33;;;;;;;7.37;2.70;;;;;;;9.22;98.92;100028.62;1698770;83;21588;-66
2022/11/03 08:31:04;;;;;;;9.73;2.12;;;;;;;9.29;98.97;100020.50;1680722;84;21009;-66
2022/11/03 08:33:28;;;;;;;6.03;2.10;;;;;;;9.36;98.86;100026.34;1697591;83;21089;-66
2022/11/03 08:35:55;;;;;;;8.60;2.20;;;;;;;9.42;98.80;100018.30;1680972;84;20914;-66
2022/11/03 08:38:21;;;;;;;6.60;1.90;;;;;;;9.44;98.58;100017.80;1702470;83;20862;-65
2022/11/03 08:40:48;;;;;;;7.17;1.93;;;;;;;9.49;98.85;100024.95;1712033;83;21531;-66
2022/11/03 08:43:14;;;;;;;6.57;1.97;;;;;;;9.56;98.60;100017.31;1699139;84;20938;-65
2022/11/03 08:45:41;;;;;;;8.50;2.07;;;;;;;9.63;98.74;100024.01;1694046;83;21197;-66
2022/11/03 08:48:08;;;;;;;7.35;2.33;;;;;;;9.71;98.78;100022.84;1691961;83;21407;-66
2022/11/03 08:50:34;;;;;;;8.15;2.20;;;;;;;9.82;98.94;100024.58;1695241;83;21015;-67
2022/11/03 08:53:01;;;;;;;9.45;2.15;;;;;;;9.87;98.73;100017.42;1685529;84;20922;-68
2022/11/03 08:55:27;;;;;;;9.10;2.77;;;;;;;9.95;98.37;100025.80;1693566;83;21600;-66
2022/11/03 08:57:54;;;;;;;7.83;2.37;;;;;;;9.97;98.28;100021.38;1695937;83;21032;-64
2022/11/03 09:00:21;;;;;;;8.43;2.35;;;;;;;10.02;98.10;100022.02;1697611;83;20946;-66
2022/11/03 09:02:48;;;;;;;8.67;2.20;;;;;;;10.08;97.93;100024.41;1693474;84;20951;-65
2022/11/03 09:05:15;;;;;;;11.22;2.10;;;;;;;10.15;97.76;100011.10;1689107;83;21030;-65
2022/11/03 09:07:41;;;;;;;6.27;2.30;;;;;;;10.20;98.08;100019.59;1711786;82;20963;-65
2022/11/03 09:10:09;;;;;;;5.73;1.97;;;;;;;10.33;97.85;100019.49;1688958;83;21480;-63
2022/11/03 09:12:36;;;;;;;8.78;2.15;;;;;;;10.46;98.14;100016.77;1704471;82;20883;-63
2022/11/03 09:15:05;;;;;;;5.05;2.17;;;;;;;10.61;98.14;100020.95;1684682;83;21006;-64
2022/11/03 09:17:32;;;;;;;8.35;2.22;;;;;;;10.70;97.87;100021.88;1695851;82;21440;-63
2022/11/03 09:19:59;;;;;;;5.03;1.92;;;;;;;10.72;97.64;100014.81;1683843;83;20946;-63
2022/11/03 09:22:25;;;;;;;3.52;1.70;;;;;;;10.83;97.65;100013.88;1690473;83;21032;-63
2022/11/03 09:24:52;;;;;;;7.55;2.00;;;;;;;10.88;97.30;100013.23;1693013;82;20899;-63
2022/11/03 09:27:18;;;;;;;7.47;1.77;;;;;;;10.93;96.92;100017.80;1690064;82;21444;-63
2022/11/03 09:29:45;;;;;;;3.75;1.87;;;;;;;10.97;97.08;100018.04;1687834;83;20953;-63
2022/11/03 09:32:11;;;;;;;7.05;2.25;;;;;;;11.06;97.09;100011.59;1687424;83;20923;-63
2022/11/03 09:34:38;;;;;;;8.37;2.13;;;;;;;11.09;96.62;100013.19;1688097;82;21835;-63
2022/11/03 09:37:05;;;;;;;6.00;3.33;;;;;;;11.17;97.06;100016.31;1684903;82;20906;-62
2022/11/03 09:39:32;;;;;;;8.87;2.30;;;;;;;11.32;97.31;100014.78;1690872;82;20914;-63
2022/11/03 09:41:59;;;;;;;5.17;2.08;;;;;;;11.41;97.04;100019.59;1692183;82;20954;-63
2022/11/03 09:44:26;;;;;;;7.97;2.25;;;;;;;11.41;96.77;100012.59;1696171;82;20896;-63
2022/11/03 09:46:53;;;;;;;8.45;2.87;;;;;;;11.50;96.49;100013.08;1701171;82;21075;-64
2022/11/03 09:49:20;;;;;;;9.07;3.20;;;;;;;11.55;96.15;100016.34;1693587;83;20931;-63
2022/11/03 09:51:47;;;;;;;8.40;2.25;;;;;;;11.52;95.62;100003.41;1707571;83;20965;-63
2022/11/03 09:54:16;;;;;;;7.13;2.40;;;;;;;11.50;95.65;100010.47;1692170;83;21430;-64
2022/11/03 09:56:43;;;;;;;9.23;2.27;;;;;;;11.50;95.24;100015.70;1700122;82;20937;-63
2022/11/03 09:59:20;;;;;;;7.15;2.20;;;;;;;11.48;95.23;100017.52;1689195;83;21093;-63
2022/11/03 10:01:52;;;;;;;9.85;3.17;;;;;;;11.54;95.29;100012.00;1687821;82;21497;-64
2022/11/03 10:04:24;;;;;;;8.43;2.60;;;;;;;11.55;95.04;100012.41;1690774;82;20953;-64
2022/11/03 10:06:51;;;;;;;6.70;2.83;;;;;;;11.50;94.92;99997.39;1703033;82;20966;-64
2022/11/03 10:09:19;;;;;;;7.27;3.80;;;;;;;11.54;94.41;100010.70;1715607;82;20924;-64
2022/11/03 10:11:47;;;;;;;11.60;5.25;;;;;;;11.51;94.26;100008.23;1697182;82;21060;-65
2022/11/03 10:14:16;;;;;;;10.58;5.22;;;;;;;11.48;94.16;100007.06;1699400;82;20963;-66
2022/11/03 10:16:51;;;;;;;11.22;6.03;;;;;;;11.43;93.90;100001.61;1696772;82;21468;-66
2022/11/03 10:19:18;;;;;;;6.62;3.33;;;;;;;11.42;93.90;100002.50;1694552;82;21471;-66
2022/11/03 10:21:44;;;;;;;9.33;4.20;;;;;;;11.47;93.99;99997.54;1698430;82;20946;-64
2022/11/03 10:24:14;;;;;;;5.07;2.67;;;;;;;11.54;93.89;100001.55;1709336;82;21110;-65
2022/11/03 10:26:51;;;;;;;9.20;2.87;;;;;;;11.53;93.49;99994.63;1693971;82;20919;-65
2022/11/03 10:29:24;;;;;;;10.23;3.60;;;;;;;11.56;93.36;99997.10;1703187;82;20954;-65
2022/11/03 10:31:54;;;;;;;7.83;3.37;;;;;;;11.49;93.16;99993.09;1706487;82;20960;-66
2022/11/03 10:34:38;;;;;;;5.67;2.22;;;;;;;11.47;93.04;99997.54;1704978;82;21408;-65
2022/11/03 10:37:20;;;;;;;5.53;1.90;;;;;;;11.49;92.48;99995.71;1701150;82;21087;-64
2022/11/03 10:39:52;;;;;;;3.75;1.37;;;;;;;11.46;92.23;99993.23;1690759;82;20927;-65
2022/11/03 10:42:27;;;;;;;4.30;1.67;;;;;;;11.46;93.12;99990.62;1693773;82;20955;-65
2022/11/03 10:45:01;;;;;;;6.22;1.55;;;;;;;11.51;92.42;99986.88;1698553;82;20913;-66
2022/11/03 10:47:33;;;;;;;7.80;3.72;;;;;;;11.43;91.86;99984.61;1689545;82;21452;-65
2022/11/03 10:50:22;;;;;;;8.03;2.62;;;;;;;11.38;91.67;99986.59;1691554;82;21057;-65
2022/11/03 10:52:50;;;;;;;5.20;2.05;;;;;;;11.30;91.45;99983.47;1720388;82;21002;-66
2022/11/03 10:55:18;;;;;;;;;;;;;;;11.21;91.53;99978.67;1681985;84;20952;-65
2022/11/03 10:57:45;;;;;;;7.58;2.40;;;;;;;11.14;91.11;99973.33;1679514;84;20127;-65
2022/11/03 11:00:17;;;;;;;6.95;2.70;;;;;;;11.04;91.15;99968.99;1700543;82;21444;-65
2022/11/03 11:02:47;;;;;;;8.73;2.70;;;;;;;11.08;91.33;99967.08;1705761;82;21091;-65
2022/11/03 11:05:22;;;;;;;5.85;1.90;;;;;;;11.16;91.58;99970.20;1708275;83;21007;-65
2022/11/03 11:07:52;;;;;;;5.37;1.77;;;;;;;11.21;91.55;99968.22;1707574;84;20950;-65
2022/11/03 11:10:23;;;;;;;9.55;2.35;;;;;;;11.26;91.36;99963.64;1707280;82;20949;-64
2022/11/03 11:13:21;;;;;;;4.92;1.80;;;;;;;11.21;90.97;99960.38;1706137;82;20975;-65
2022/11/03 11:15:58;;;;;;;12.18;3.02;;;;;;;11.20;90.90;99954.75;1705351;83;21906;-65
2022/11/03 11:18:32;;;;;;;10.80;3.87;;;;;;;11.16;90.85;99949.28;1619554;83;30603;-65
2022/11/03 11:21:16;;;;;;;13.05;3.58;;;;;;;11.15;90.69;99953.67;1629853;86;21037;-65
2022/11/03 11:23:45;;;;;;;8.20;3.10;;;;;;;11.16;90.46;99949.28;1645143;85;20997;-65
2022/11/03 11:26:26;;;;;;;5.20;2.60;;;;;;;11.14;90.46;99943.27;1642073;85;20970;-65
2022/11/03 11:29:14;;;;;;;6.30;2.65;;;;;;;11.15;89.98;99939.77;1644310;85;22089;-65
2022/11/03 11:31:44;;;;;;;7.12;2.17;;;;;;;11.14;89.55;99944.58;1646904;85;20965;-65
2022/11/03 11:34:22;;;;;;;5.85;2.30;;;;;;;11.16;89.85;99938.83;1646240;85;20966;-65
2022/11/03 11:37:00;;;;;;;7.10;2.72;;;;;;;11.18;89.70;99939.62;1644709;85;21480;-65
2022/11/03 11:39:39;;;;;;;8.93;2.55;;;;;;;11.18;89.55;99931.78;1642038;85;20959;-65
2022/11/03 11:42:16;;;;;;;7.65;3.00;;;;;;;11.22;89.56;99932.47;1646300;85;21161;-65
2022/11/03 11:44:49;;;;;;;7.83;2.67;;;;;;;11.24;89.39;99926.26;1650548;85;20935;-65
2022/11/03 11:47:42;;;;;;;7.87;2.80;;;;;;;11.17;89.36;99924.84;1650795;85;21471;-65
2022/11/03 11:50:16;;;;;;;9.08;2.62;;;;;;;11.24;89.38;99917.58;1644890;85;20998;-65
2022/11/03 11:52:51;;;;;;;9.05;3.27;;;;;;;11.20;89.44;99922.08;1645218;85;20935;-65
2022/11/03 11:55:23;;;;;;;5.95;3.02;;;;;;;11.20;89.11;99914.23;1644174;85;21879;-66
2022/11/03 11:57:51;;;;;;;9.83;3.25;;;;;;;11.15;89.02;99907.09;1647474;85;21006;-65
2022/11/03 12:00:27;;;;;;;11.90;3.47;;;;;;;11.24;88.90;99909.27;1647094;85;20929;-64
2022/11/03 12:02:55;;;;;;;6.47;2.58;;;;;;;11.20;88.93;99902.48;1639725;85;20993;-65
2022/11/03 12:05:30;;;;;;;6.80;2.17;;;;;;;11.17;88.54;99896.96;1647504;85;21539;-65
2022/11/03 12:07:56;;;;;;;6.85;1.90;;;;;;;11.15;88.54;99892.72;1643189;85;21071;-66
2022/11/03 12:10:27;;;;;;;6.22;2.42;;;;;;;11.12;88.49;99882.41;1647107;85;20971;-65
2022/11/03 12:12:57;;;;;;;9.40;2.37;;;;;;;11.13;88.21;99886.71;1644477;85;21037;-66